Time;durP1;ratioP1;P1;durP2;ratioP2;P2;SDS_P1;SDS_P2;PMS_P1;PMS_P2;Temp;Humidity;BMP_temperature;BMP_pressure;BME280_temperature;BME280_humidity;BME280_pressure;Samples;Min_cycle;Max_cycle;Signal;HPM_P1;HPM_P2
2023/12/11 00:00:11;0.00;0.00;0.62;0.00;0.00;0.62;3.93;1.70;;;20.40;26.90;;;;;;2264255;61;20437;-55
2023/12/11 00:02:56;0.00;0.00;0.62;0.00;0.00;0.62;3.50;1.83;;;20.40;26.90;;;;;;2264185;61;20830;-58
2023/12/11 00:05:41;0.00;0.00;0.62;0.00;0.00;0.62;2.90;1.97;;;20.40;26.90;;;;;;2264506;61;20368;-55
2023/12/11 00:08:26;0.00;0.00;0.62;0.00;0.00;0.62;3.07;1.57;;;20.40;26.90;;;;;;2264149;61;20875;-52
2023/12/11 00:11:12;0.00;0.00;0.62;0.00;0.00;0.62;2.07;1.70;;;20.40;26.90;;;;;;2264687;61;20458;-56
2023/12/11 00:13:58;0.00;0.00;0.62;0.00;0.00;0.62;3.73;2.00;;;20.40;26.90;;;;;;2264481;61;20446;-58
2023/12/11 00:16:45;0.00;0.00;0.62;0.00;0.00;0.62;3.90;1.80;;;20.40;27.40;;;;;;2264036;61;20398;-55
2023/12/11 00:19:31;0.00;0.00;0.62;0.00;0.00;0.62;4.73;1.90;;;20.40;26.90;;;;;;2264743;61;20383;-55
2023/12/11 00:22:16;0.00;0.00;0.62;0.00;0.00;0.62;2.80;1.77;;;20.40;26.90;;;;;;2264135;61;20776;-58
2023/12/11 00:25:01;0.00;0.00;0.62;0.00;0.00;0.62;3.60;1.70;;;20.40;26.90;;;;;;2264509;61;20834;-55
2023/12/11 00:27:46;0.00;0.00;0.62;0.00;0.00;0.62;2.30;1.63;;;20.40;26.90;;;;;;2264628;61;20903;-56
2023/12/11 00:30:32;0.00;0.00;0.62;0.00;0.00;0.62;3.03;1.47;;;20.40;26.90;;;;;;2264129;61;20379;-55
2023/12/11 00:33:16;0.00;0.00;0.62;0.00;0.00;0.62;3.50;2.20;;;20.40;26.90;;;;;;2263950;61;20400;-56
2023/12/11 00:36:01;0.00;0.00;0.62;0.00;0.00;0.62;3.60;1.70;;;20.40;26.90;;;;;;2264452;61;20406;-52
2023/12/11 00:38:47;0.00;0.00;0.62;0.00;0.00;0.62;3.77;2.20;;;20.40;26.90;;;;;;2264159;61;20766;-56
2023/12/11 00:41:32;0.00;0.00;0.62;0.00;0.00;0.62;3.57;1.90;;;20.40;26.90;;;;;;2264257;61;20779;-56
2023/12/11 00:44:17;0.00;0.00;0.62;0.00;0.00;0.62;3.83;2.20;;;20.40;26.90;;;;;;2264740;61;20772;-50
2023/12/11 00:47:04;0.00;0.00;0.62;0.00;0.00;0.62;3.60;1.60;;;20.40;26.90;;;;;;2264404;61;20522;-54
2023/12/11 00:49:49;0.00;0.00;0.62;0.00;0.00;0.62;2.90;1.53;;;20.40;26.90;;;;;;2264573;61;20372;-55
2023/12/11 00:52:33;0.00;0.00;0.62;0.00;0.00;0.62;3.60;1.73;;;20.40;26.90;;;;;;2263816;61;21000;-50
2023/12/11 00:55:18;0.00;0.00;0.62;0.00;0.00;0.62;2.07;1.60;;;20.40;26.90;;;;;;2264523;61;20371;-56
2023/12/11 00:58:03;0.00;0.00;0.62;0.00;0.00;0.62;2.40;1.50;;;20.40;26.90;;;;;;2264646;61;20391;-52
2023/12/11 01:00:48;0.00;0.00;0.62;0.00;0.00;0.62;3.57;1.90;;;20.40;26.90;;;;;;2263912;61;20914;-51
2023/12/11 01:03:35;0.00;0.00;0.62;0.00;0.00;0.62;2.30;1.30;;;20.40;26.90;;;;;;2263987;61;20415;-54
2023/12/11 01:06:20;0.00;0.00;0.62;0.00;0.00;0.62;3.13;1.93;;;20.40;26.90;;;;;;2264601;61;20772;-52
2023/12/11 01:09:05;0.00;0.00;0.62;0.00;0.00;0.62;4.80;1.80;;;20.40;26.90;;;;;;2264596;61;20356;-54
2023/12/11 01:11:50;0.00;0.00;0.62;0.00;0.00;0.62;3.03;1.60;;;20.40;26.90;;;;;;2264043;61;20888;-55
2023/12/11 01:14:34;0.00;0.00;0.62;0.00;0.00;0.62;2.60;1.60;;;20.40;26.90;;;;;;2264015;61;20396;-50
2023/12/11 01:17:19;0.00;0.00;0.62;0.00;0.00;0.62;3.93;2.10;;;20.40;26.90;;;;;;2264285;61;20904;-53
2023/12/11 01:20:06;0.00;0.00;0.62;0.00;0.00;0.62;4.70;1.83;;;20.40;26.90;;;;;;2264342;61;20372;-55
2023/12/11 01:22:51;0.00;0.00;0.62;0.00;0.00;0.62;3.20;1.60;;;20.40;26.90;;;;;;2263639;61;20437;-53
2023/12/11 01:25:36;0.00;0.00;0.62;0.00;0.00;0.62;2.83;1.50;;;20.40;26.90;;;;;;2264711;61;20360;-57
2023/12/11 01:28:20;0.00;0.00;0.62;0.00;0.00;0.62;3.07;1.77;;;20.40;26.90;;;;;;2264648;61;20522;-53
2023/12/11 01:31:05;0.00;0.00;0.62;0.00;0.00;0.62;4.30;1.80;;;20.40;26.90;;;;;;2264783;61;20403;-54
2023/12/11 01:33:50;0.00;0.00;0.62;0.00;0.00;0.62;2.33;1.50;;;20.40;26.90;;;;;;2264839;61;20472;-57
2023/12/11 01:36:36;0.00;0.00;0.62;0.00;0.00;0.62;2.70;1.57;;;20.40;26.90;;;;;;2264364;61;20415;-52
2023/12/11 01:39:21;0.00;0.00;0.62;0.00;0.00;0.62;3.37;2.00;;;20.40;26.90;;;;;;2264957;61;20514;-56
2023/12/11 01:42:05;0.00;0.00;0.62;0.00;0.00;0.62;3.00;1.93;;;20.40;26.90;;;;;;2264785;61;20449;-53
2023/12/11 01:44:51;0.00;0.00;0.62;0.00;0.00;0.62;3.60;1.87;;;20.40;26.90;;;;;;2264356;61;20426;-57
2023/12/11 01:47:36;0.00;0.00;0.62;0.00;0.00;0.62;3.30;1.50;;;20.40;26.90;;;;;;2265038;61;20666;-51
2023/12/11 01:50:20;0.00;0.00;0.62;0.00;0.00;0.62;2.50;1.40;;;20.50;27.00;;;;;;2265010;61;20892;-53
2023/12/11 01:53:07;0.00;0.00;0.62;0.00;0.00;0.62;2.33;1.53;;;20.40;26.90;;;;;;2264324;61;20425;-55
2023/12/11 01:55:52;0.00;0.00;0.62;0.00;0.00;0.62;2.23;1.53;;;20.40;26.90;;;;;;2265014;61;20368;-57
2023/12/11 01:58:37;0.00;0.00;0.62;0.00;0.00;0.62;3.60;1.37;;;20.50;26.90;;;;;;2616303;45;20457;-52
2023/12/11 02:01:24;0.00;0.00;0.62;0.00;0.00;0.62;3.23;1.50;;;20.50;27.00;;;;;;2261015;61;20795;-56
2023/12/11 02:04:10;0.00;0.00;0.62;0.00;0.00;0.62;3.17;1.63;;;20.50;26.90;;;;;;2261038;61;20478;-58
2023/12/11 02:06:55;0.00;0.00;0.62;0.00;0.00;0.62;2.83;1.77;;;20.50;26.90;;;;;;2260415;61;20369;-54
2023/12/11 02:09:41;0.00;0.00;0.62;0.00;0.00;0.62;2.57;1.53;;;20.50;26.90;;;;;;2260862;61;20492;-57
2023/12/11 02:12:26;0.00;0.00;0.62;0.00;0.00;0.62;3.47;1.77;;;20.50;27.00;;;;;;2260541;61;20419;-55
2023/12/11 02:15:11;0.00;0.00;0.62;0.00;0.00;0.62;3.00;1.60;;;20.50;27.50;;;;;;2260492;61;20380;-56
2023/12/11 02:17:55;0.00;0.00;0.62;0.00;0.00;0.62;3.03;1.93;;;20.50;26.90;;;;;;2257818;61;20365;-52
2023/12/11 02:20:43;0.00;0.00;0.62;0.00;0.00;0.62;2.87;1.80;;;20.50;26.90;;;;;;2260680;61;20396;-56
2023/12/11 02:23:40;0.00;0.00;0.62;0.00;0.00;0.62;3.93;2.07;;;20.50;27.00;;;;;;2260661;61;20908;-53
2023/12/11 02:26:26;0.00;0.00;0.62;0.00;0.00;0.62;5.13;2.20;;;20.50;26.90;;;;;;2260983;61;20361;-57
2023/12/11 02:29:11;0.00;0.00;0.62;0.00;0.00;0.62;3.50;1.80;;;20.50;26.90;;;;;;2260297;61;20404;-57
2023/12/11 02:31:56;0.00;0.00;0.62;0.00;0.00;0.62;2.80;1.60;;;20.50;26.90;;;;;;2260469;61;20419;-55
2023/12/11 02:34:41;0.00;0.00;0.62;0.00;0.00;0.62;2.80;1.37;;;20.50;26.90;;;;;;2259463;61;20380;-55
2023/12/11 02:37:26;0.00;0.00;0.62;0.00;0.00;0.62;3.87;1.73;;;20.50;26.90;;;;;;2260498;61;20356;-53
2023/12/11 02:40:11;0.00;0.00;0.62;0.00;0.00;0.62;3.50;1.60;;;20.50;26.90;;;;;;2260710;61;20408;-53
2023/12/11 02:42:57;0.00;0.00;0.62;0.00;0.00;0.62;3.90;1.97;;;20.50;26.90;;;;;;2262180;61;20387;-60
2023/12/11 02:45:42;0.00;0.00;0.62;0.00;0.00;0.62;2.60;1.60;;;20.50;26.90;;;;;;2264921;61;20368;-56
2023/12/11 02:48:27;0.00;0.00;0.62;0.00;0.00;0.62;2.30;1.60;;;20.50;26.90;;;;;;2264843;61;20439;-56
2023/12/11 02:51:14;0.00;0.00;0.62;0.00;0.00;0.62;3.47;1.93;;;20.50;26.90;;;;;;2264571;61;20449;-56
2023/12/11 02:53:59;0.00;0.00;0.62;0.00;0.00;0.62;3.30;1.73;;;20.50;26.90;;;;;;2260431;61;20403;-58
2023/12/11 02:56:44;0.00;0.00;0.62;0.00;0.00;0.62;3.00;1.80;;;20.50;26.90;;;;;;2259328;61;20825;-58
2023/12/11 02:59:30;0.00;0.00;0.62;0.00;0.00;0.62;3.93;1.97;;;20.50;26.90;;;;;;2265072;61;20412;-54
2023/12/11 03:02:15;0.00;0.00;0.62;0.00;0.00;0.62;2.60;1.70;;;20.50;26.90;;;;;;2268431;61;20368;-58
2023/12/11 03:04:59;0.00;0.00;0.62;0.00;0.00;0.62;3.37;2.20;;;20.50;26.90;;;;;;2268890;61;20370;-59
2023/12/11 03:07:44;0.00;0.00;0.62;0.00;0.00;0.62;3.10;1.80;;;20.50;27.00;;;;;;2268507;61;20379;-54
2023/12/11 03:10:29;0.00;0.00;0.62;0.00;0.00;0.62;3.80;1.80;;;20.50;26.90;;;;;;2269101;61;20654;-60
2023/12/11 03:13:14;0.00;0.00;0.62;0.00;0.00;0.62;2.80;1.43;;;20.50;26.90;;;;;;2267975;61;20437;-58
2023/12/11 03:16:00;0.00;0.00;0.62;0.00;0.00;0.62;3.47;1.70;;;20.50;26.90;;;;;;2268588;61;20413;-64
2023/12/11 03:18:44;0.00;0.00;0.62;0.00;0.00;0.62;2.77;1.60;;;20.50;27.00;;;;;;2268777;61;20446;-57
2023/12/11 03:21:29;0.00;0.00;0.62;0.00;0.00;0.62;3.83;2.00;;;20.50;26.90;;;;;;2268728;61;20363;-51
2023/12/11 03:24:14;0.00;0.00;0.62;0.00;0.00;0.62;2.50;1.50;;;20.50;26.90;;;;;;2268876;61;20856;-56
2023/12/11 03:26:59;0.00;0.00;0.62;0.00;0.00;0.62;2.97;1.53;;;20.50;26.90;;;;;;2268840;61;20871;-53
2023/12/11 03:29:44;0.00;0.00;0.62;0.00;0.00;0.62;3.30;2.10;;;20.50;26.90;;;;;;2268702;61;20390;-53
2023/12/11 03:32:30;0.00;0.00;0.62;0.00;0.00;0.62;3.00;1.43;;;20.50;26.90;;;;;;2268186;61;20821;-56
2023/12/11 03:35:15;0.00;0.00;0.62;0.00;0.00;0.62;3.20;1.40;;;20.50;26.90;;;;;;2268385;61;20428;-54
2023/12/11 03:38:00;0.00;0.00;0.62;0.00;0.00;0.62;2.43;1.47;;;20.60;27.00;;;;;;2268787;61;20451;-54
2023/12/11 03:40:45;0.00;0.00;0.62;0.00;0.00;0.62;2.50;1.33;;;20.60;27.00;;;;;;2268540;61;20443;-55
2023/12/11 03:43:29;0.00;0.00;0.62;0.00;0.00;0.62;3.20;1.50;;;20.50;26.90;;;;;;2268146;61;20386;-55
2023/12/11 03:46:15;0.00;0.00;0.62;0.00;0.00;0.62;2.83;1.67;;;20.60;27.00;;;;;;2268686;61;20964;-55
2023/12/11 03:49:02;0.00;0.00;0.62;0.00;0.00;0.62;3.40;2.20;;;20.60;27.00;;;;;;2268748;61;20394;-52
2023/12/11 03:51:48;0.00;0.00;0.62;0.00;0.00;0.62;3.27;2.00;;;20.60;27.00;;;;;;2267688;61;20375;-57
2023/12/11 03:54:33;0.00;0.00;0.62;0.00;0.00;0.62;2.30;1.47;;;20.60;27.00;;;;;;2268643;61;20471;-55
2023/12/11 03:57:18;0.00;0.00;0.62;0.00;0.00;0.62;3.30;1.40;;;20.60;27.00;;;;;;2268297;61;20361;-55
2023/12/11 04:00:03;0.00;0.00;0.62;0.00;0.00;0.62;2.30;1.40;;;20.50;26.90;;;;;;2268543;61;20507;-55
2023/12/11 04:02:49;0.00;0.00;0.62;0.00;0.00;0.62;2.70;1.43;;;20.50;26.90;;;;;;2268265;61;20783;-53
2023/12/11 04:05:35;0.00;0.00;0.62;0.00;0.00;0.62;2.83;1.60;;;20.50;26.90;;;;;;2268273;61;20417;-57
2023/12/11 04:08:20;0.00;0.00;0.62;0.00;0.00;0.62;2.30;1.53;;;20.60;27.00;;;;;;2268648;61;20391;-56
2023/12/11 04:11:05;0.00;0.00;0.62;0.00;0.00;0.62;2.30;1.33;;;20.60;27.00;;;;;;2268542;61;20367;-55
2023/12/11 04:13:50;0.00;0.00;0.62;0.00;0.00;0.62;3.03;1.70;;;20.60;27.00;;;;;;2267931;61;20382;-57
2023/12/11 04:16:35;0.00;0.00;0.62;0.00;0.00;0.62;2.77;1.63;;;20.50;26.90;;;;;;2268671;61;20456;-55
2023/12/11 04:19:19;0.00;0.00;0.62;0.00;0.00;0.62;2.63;1.47;;;20.60;27.00;;;;;;2268197;61;20383;-51
2023/12/11 04:22:05;0.00;0.00;0.62;0.00;0.00;0.62;2.83;1.50;;;20.60;27.00;;;;;;2268353;61;20355;-54
2023/12/11 04:24:50;0.00;0.00;0.62;0.00;0.00;0.62;3.13;1.40;;;20.60;27.00;;;;;;2268546;61;20926;-56
2023/12/11 04:27:34;0.00;0.00;0.62;0.00;0.00;0.62;5.00;1.50;;;20.60;27.00;;;;;;2268275;61;20402;-55
2023/12/11 04:30:19;0.00;0.00;0.62;0.00;0.00;0.62;2.93;1.40;;;20.60;27.00;;;;;;2268622;61;20363;-58
2023/12/11 04:33:04;0.00;0.00;0.62;0.00;0.00;0.62;4.60;1.40;;;20.60;27.00;;;;;;2268102;61;20386;-56
2023/12/11 04:35:48;0.00;0.00;0.62;0.00;0.00;0.62;3.20;1.50;;;20.60;27.00;;;;;;2268103;61;20444;-54
2023/12/11 04:38:34;0.00;0.00;0.62;0.00;0.00;0.62;2.50;1.40;;;20.60;27.00;;;;;;2268636;61;20367;-53
2023/12/11 04:41:19;0.00;0.00;0.62;0.00;0.00;0.62;3.80;1.77;;;20.60;27.00;;;;;;2268147;61;20490;-59
2023/12/11 04:44:04;0.00;0.00;0.62;0.00;0.00;0.62;4.00;1.67;;;20.60;27.00;;;;;;2268561;61;20387;-50
2023/12/11 04:46:49;0.00;0.00;0.62;0.00;0.00;0.62;3.13;1.53;;;20.60;27.00;;;;;;2268354;61;20367;-53
2023/12/11 04:49:33;0.00;0.00;0.62;0.00;0.00;0.62;3.07;1.57;;;20.60;27.00;;;;;;2268107;61;20359;-55
2023/12/11 04:52:18;0.00;0.00;0.62;0.00;0.00;0.62;2.70;1.23;;;20.60;27.00;;;;;;2268131;61;20405;-53
2023/12/11 04:55:05;0.00;0.00;0.62;0.00;0.00;0.62;2.83;1.60;;;20.60;27.00;;;;;;2267940;61;20505;-53
2023/12/11 04:57:49;0.00;0.00;0.62;0.00;0.00;0.62;3.47;1.60;;;20.60;27.00;;;;;;2268169;61;20493;-54
2023/12/11 05:00:35;0.00;0.00;0.62;0.00;0.00;0.62;3.00;1.50;;;20.60;27.00;;;;;;2268463;61;20379;-53
2023/12/11 05:03:19;0.00;0.00;0.62;0.00;0.00;0.62;2.60;1.30;;;20.60;27.00;;;;;;2268153;61;20459;-57
2023/12/11 05:06:05;0.00;0.00;0.62;0.00;0.00;0.62;5.00;1.20;;;20.60;27.00;;;;;;2269111;61;20371;-53
2023/12/11 05:08:50;0.00;0.00;0.62;0.00;0.00;0.62;2.57;1.23;;;20.60;27.00;;;;;;2268934;61;20394;-55
2023/12/11 05:11:35;0.00;0.00;0.62;0.00;0.00;0.62;3.50;1.20;;;20.60;27.00;;;;;;2268468;61;20895;-59
2023/12/11 05:14:20;0.00;0.00;0.62;0.00;0.00;0.62;3.67;1.40;;;20.60;27.00;;;;;;2269058;61;20913;-57
2023/12/11 05:17:05;0.00;0.00;0.62;0.00;0.00;0.62;3.13;1.80;;;20.60;27.00;;;;;;2265975;61;20748;-57
2023/12/11 05:19:50;0.00;0.00;0.62;0.00;0.00;0.62;3.17;1.20;;;20.60;27.00;;;;;;2268777;61;20386;-56
2023/12/11 05:22:35;0.00;0.00;0.62;0.00;0.00;0.62;2.80;1.37;;;20.60;27.00;;;;;;2268642;61;20359;-54
2023/12/11 05:25:20;0.00;0.00;0.62;0.00;0.00;0.62;2.43;1.20;;;20.60;27.00;;;;;;2268943;61;20429;-56
2023/12/11 05:28:06;0.00;0.00;0.62;0.00;0.00;0.62;2.37;1.30;;;20.60;27.00;;;;;;2269150;61;20923;-55
2023/12/11 05:30:51;0.00;0.00;0.62;0.00;0.00;0.62;2.70;1.10;;;20.60;27.00;;;;;;2268910;61;20371;-52
2023/12/11 05:33:36;0.00;0.00;0.62;0.00;0.00;0.62;4.70;1.50;;;20.60;27.00;;;;;;2268392;61;20836;-51
2023/12/11 05:36:21;0.00;0.00;0.62;0.00;0.00;0.62;2.67;1.30;;;20.60;27.00;;;;;;2269045;61;20416;-53
2023/12/11 05:39:06;0.00;0.00;0.62;0.00;0.00;0.62;2.60;1.37;;;20.60;27.00;;;;;;2266082;61;20355;-56
2023/12/11 05:41:52;0.00;0.00;0.62;0.00;0.00;0.62;3.80;1.23;;;20.60;27.00;;;;;;2268276;61;20442;-55
2023/12/11 05:44:38;0.00;0.00;0.62;0.00;0.00;0.62;4.13;1.73;;;20.60;27.00;;;;;;2269059;61;20382;-56
2023/12/11 05:47:23;0.00;0.00;0.62;0.00;0.00;0.62;2.47;1.20;;;20.60;27.00;;;;;;2269032;61;20364;-57
2023/12/11 05:50:09;0.00;0.00;0.62;0.00;0.00;0.62;3.30;1.33;;;20.60;27.00;;;;;;2268764;61;20413;-56
2023/12/11 05:52:54;0.00;0.00;0.62;0.00;0.00;0.62;3.07;1.40;;;20.60;27.00;;;;;;2268887;61;20501;-56
2023/12/11 05:55:39;0.00;0.00;0.62;0.00;0.00;0.62;3.50;1.60;;;20.60;27.00;;;;;;2268689;61;20764;-55
2023/12/11 05:58:24;0.00;0.00;0.62;0.00;0.00;0.62;2.30;1.03;;;20.60;27.00;;;;;;2269112;61;20438;-55
2023/12/11 06:01:11;0.00;0.00;0.62;0.00;0.00;0.62;3.57;1.57;;;20.60;27.00;;;;;;2269073;61;20383;-57
2023/12/11 06:03:55;0.00;0.00;0.62;0.00;0.00;0.62;3.93;1.53;;;20.60;27.00;;;;;;2268482;61;20387;-53
2023/12/11 06:06:40;0.00;0.00;0.62;0.00;0.00;0.62;2.10;1.30;;;20.60;27.00;;;;;;2268999;61;20362;-55
2023/12/11 06:09:25;0.00;0.00;0.62;0.00;0.00;0.62;3.30;1.20;;;20.60;27.00;;;;;;2268990;61;20385;-52
2023/12/11 06:12:09;0.00;0.00;0.62;0.00;0.00;0.62;2.27;1.30;;;20.60;27.00;;;;;;2268368;61;20374;-56
2023/12/11 06:14:54;0.00;0.00;0.62;0.00;0.00;0.62;2.20;1.40;;;20.60;27.50;;;;;;2265839;61;20359;-57
2023/12/11 06:17:40;0.00;0.00;0.62;0.00;0.00;0.62;2.10;1.10;;;20.70;27.10;;;;;;2265342;61;20363;-57
2023/12/11 06:20:25;0.00;0.00;0.62;0.00;0.00;0.62;3.00;1.47;;;20.60;27.00;;;;;;2269021;61;20424;-58
2023/12/11 06:23:10;0.00;0.00;0.62;0.00;0.00;0.62;3.23;1.47;;;20.60;27.00;;;;;;2268672;61;20402;-56
2023/12/11 06:25:55;0.00;0.00;0.62;0.00;0.00;0.62;2.37;1.00;;;20.60;27.00;;;;;;2268603;61;20937;-50
2023/12/11 06:28:40;0.00;0.00;0.62;0.00;0.00;0.62;3.20;1.50;;;20.60;27.00;;;;;;2269046;61;20403;-55
2023/12/11 06:31:25;0.00;0.00;0.62;0.00;0.00;0.62;2.33;1.60;;;20.60;27.00;;;;;;2268823;61;20769;-54
2023/12/11 06:34:11;0.00;0.00;0.62;0.00;0.00;0.62;3.47;1.27;;;20.70;27.10;;;;;;2268542;61;20509;-56
2023/12/11 06:36:56;0.00;0.00;0.62;0.00;0.00;0.62;3.43;1.40;;;20.70;27.10;;;;;;2268825;61;20360;-54
2023/12/11 06:39:41;0.00;0.00;0.62;0.00;0.00;0.62;2.97;1.20;;;20.70;27.10;;;;;;2265570;61;20360;-57
2023/12/11 06:42:26;0.00;0.00;0.62;0.00;0.00;0.62;4.07;1.20;;;20.60;27.60;;;;;;2268683;61;20940;-55
2023/12/11 06:45:12;0.00;0.00;0.62;0.00;0.00;0.62;5.37;1.60;;;20.60;27.00;;;;;;2269243;61;20427;-52
2023/12/11 06:47:57;0.00;0.00;0.62;0.00;0.00;0.62;3.77;1.97;;;20.60;27.00;;;;;;2265203;61;20402;-56
2023/12/11 06:50:43;0.00;0.00;0.62;0.00;0.00;0.62;3.83;1.60;;;20.70;27.10;;;;;;2268860;61;20375;-58
2023/12/11 06:53:28;0.00;0.00;0.62;0.00;0.00;0.62;3.43;1.50;;;20.70;27.10;;;;;;2268445;61;20447;-55
2023/12/11 06:56:18;0.00;0.00;0.62;0.00;0.00;0.62;2.87;1.27;;;20.70;27.10;;;;;;2268593;61;20470;-57
2023/12/11 06:59:03;0.00;0.00;0.62;0.00;0.00;0.62;2.80;1.30;;;20.70;27.10;;;;;;2268843;61;20885;-55
2023/12/11 07:01:48;0.00;0.00;0.62;0.00;0.00;0.62;3.53;1.30;;;20.70;27.10;;;;;;2265372;61;20902;-62
2023/12/11 07:04:33;0.00;0.00;0.62;0.00;0.00;0.62;2.60;1.30;;;20.70;27.10;;;;;;2268962;61;20379;-57
2023/12/11 07:07:19;0.00;0.00;0.62;0.00;0.00;0.62;2.37;1.33;;;20.70;27.10;;;;;;2268746;61;20394;-54
2023/12/11 07:10:05;0.00;0.00;0.62;0.00;0.00;0.62;4.20;1.63;;;20.70;27.10;;;;;;2268643;61;20907;-52
2023/12/11 07:12:50;0.00;0.00;0.62;0.00;0.00;0.62;1.80;1.03;;;20.70;27.10;;;;;;2268356;61;20467;-53
2023/12/11 07:15:34;0.00;0.00;0.62;0.00;0.00;0.62;2.07;0.93;;;20.70;27.10;;;;;;2268638;61;20375;-56
2023/12/11 07:18:20;0.00;0.00;0.62;0.00;0.00;0.62;2.37;1.43;;;20.70;27.10;;;;;;2268447;61;20398;-52
2023/12/11 07:21:08;0.00;0.00;0.62;0.00;0.00;0.62;2.07;1.20;;;20.70;27.10;;;;;;2268843;61;20930;-52
2023/12/11 07:23:54;0.00;0.00;0.62;0.00;0.00;0.62;3.00;1.40;;;20.70;27.10;;;;;;2268255;61;20810;-51
2023/12/11 07:26:39;0.00;0.00;0.62;0.00;0.00;0.62;2.33;1.57;;;20.70;27.10;;;;;;2268619;61;20510;-53
2023/12/11 07:29:24;0.00;0.00;0.62;0.00;0.00;0.62;3.07;1.90;;;20.70;27.10;;;;;;2268754;61;20683;-56
2023/12/11 07:32:09;0.00;0.00;0.62;0.00;0.00;0.62;3.20;1.60;;;20.70;27.10;;;;;;2268022;61;20398;-57
2023/12/11 07:34:53;0.00;0.00;0.62;0.00;0.00;0.62;3.20;1.10;;;20.70;27.10;;;;;;2265520;61;20363;-56
2023/12/11 07:37:41;0.00;0.00;0.62;0.00;0.00;0.62;3.50;1.43;;;20.70;27.10;;;;;;2268757;61;20871;-53
2023/12/11 07:40:27;0.00;0.00;0.62;0.00;0.00;0.62;3.30;1.50;;;20.70;27.10;;;;;;2268271;61;20390;-56
2023/12/11 07:43:12;0.00;0.00;0.62;0.00;0.00;0.62;2.60;1.50;;;20.70;27.10;;;;;;2268226;61;20387;-56
2023/12/11 07:45:56;0.00;0.00;0.62;0.00;0.00;0.62;3.10;1.73;;;20.70;27.10;;;;;;2268911;61;20409;-55
2023/12/11 07:48:41;0.00;0.00;0.62;0.00;0.00;0.62;3.40;1.97;;;20.70;27.10;;;;;;2268234;61;20383;-55
2023/12/11 07:51:26;0.00;0.00;0.62;0.00;0.00;0.62;3.47;1.50;;;20.70;27.10;;;;;;2268657;61;20427;-57
2023/12/11 07:54:13;0.00;0.00;0.62;0.00;0.00;0.62;2.37;1.43;;;20.70;27.10;;;;;;2264922;61;21000;-53
2023/12/11 07:56:59;0.00;0.00;0.62;0.00;0.00;0.62;2.57;1.40;;;20.70;27.10;;;;;;2268054;61;20416;-55
2023/12/11 07:59:44;0.00;0.00;0.62;0.00;0.00;0.62;3.40;1.50;;;20.70;27.10;;;;;;2268540;61;20386;-53
2023/12/11 08:02:28;0.00;0.00;0.62;0.00;0.00;0.62;3.33;1.90;;;20.70;27.10;;;;;;2267968;61;20439;-54
2023/12/11 08:05:13;0.00;0.00;0.62;0.00;0.00;0.62;2.60;1.37;;;20.70;27.60;;;;;;2268535;61;20355;-55
2023/12/11 08:07:58;0.00;0.00;0.62;0.00;0.00;0.62;2.73;1.20;;;20.70;27.10;;;;;;2268635;61;20966;-53
2023/12/11 08:10:43;0.00;0.00;0.62;0.00;0.00;0.62;4.43;1.53;;;20.70;27.10;;;;;;2268321;61;20798;-59
2023/12/11 08:13:29;0.00;0.00;0.62;0.00;0.00;0.62;3.47;1.40;;;20.70;27.10;;;;;;2268224;61;20379;-54
2023/12/11 08:16:15;0.00;0.00;0.62;0.00;0.00;0.62;4.03;1.90;;;20.70;27.10;;;;;;2268255;61;20503;-53
2023/12/11 08:19:01;0.00;0.00;0.62;0.00;0.00;0.62;3.53;1.53;;;20.70;27.10;;;;;;2268697;61;20367;-53
2023/12/11 08:21:45;0.00;0.00;0.62;0.00;0.00;0.62;2.97;1.43;;;20.70;27.10;;;;;;2268107;61;20406;-54
2023/12/11 08:24:30;0.00;0.00;0.62;0.00;0.00;0.62;3.07;1.40;;;20.70;27.10;;;;;;2268214;61;20383;-55
2023/12/11 08:27:15;0.00;0.00;0.62;0.00;0.00;0.62;2.20;1.10;;;20.70;27.10;;;;;;2268635;61;20358;-55
2023/12/11 08:30:01;0.00;0.00;0.62;0.00;0.00;0.62;2.27;1.20;;;20.80;27.20;;;;;;2264114;61;20403;-55
2023/12/11 08:32:45;0.00;0.00;0.62;0.00;0.00;0.62;3.40;2.10;;;20.70;27.10;;;;;;2267230;61;20424;-52
2023/12/11 08:35:30;0.00;0.00;0.62;0.00;0.00;0.62;1.97;1.10;;;20.70;27.10;;;;;;2268688;61;20421;-56
2023/12/11 08:38:16;0.00;0.00;0.62;0.00;0.00;0.62;2.20;1.23;;;20.70;27.10;;;;;;2268689;61;20887;-56
2023/12/11 08:41:01;0.00;0.00;0.62;0.00;0.00;0.62;3.20;1.43;;;20.70;27.10;;;;;;2269223;61;20438;-55
2023/12/11 08:43:46;0.00;0.00;0.62;0.00;0.00;0.62;2.73;1.37;;;20.80;27.20;;;;;;2269029;61;20779;-52
2023/12/11 08:46:34;0.00;0.00;0.62;0.00;0.00;0.62;2.70;1.50;;;20.80;27.20;;;;;;2269036;61;20416;-55
2023/12/11 08:49:19;0.00;0.00;0.62;0.00;0.00;0.62;2.77;1.70;;;20.80;27.20;;;;;;2269160;61;20918;-50
2023/12/11 08:52:04;0.00;0.00;0.62;0.00;0.00;0.62;2.23;1.20;;;20.80;27.20;;;;;;2269003;61;20367;-55
2023/12/11 08:54:50;0.00;0.00;0.62;0.00;0.00;0.62;2.33;1.37;;;20.80;27.70;;;;;;2268790;61;20387;-57
2023/12/11 08:57:35;0.00;0.00;0.62;0.00;0.00;0.62;2.80;1.87;;;20.80;27.20;;;;;;2265938;61;20368;-57
2023/12/11 09:00:20;0.00;0.00;0.62;0.00;0.00;0.62;3.60;2.03;;;20.70;27.10;;;;;;2268743;61;20354;-56
2023/12/11 09:03:06;0.00;0.00;0.62;0.00;0.00;0.62;3.60;1.70;;;20.80;27.20;;;;;;2268881;61;20457;-57
2023/12/11 09:05:52;0.00;0.00;0.62;0.00;0.00;0.62;2.73;1.60;;;20.80;27.20;;;;;;2269084;61;20405;-56
2023/12/11 09:08:37;0.00;0.00;0.62;0.00;0.00;0.62;2.83;1.83;;;20.80;27.20;;;;;;2265575;61;20390;-51
2023/12/11 09:11:22;0.00;0.00;0.62;0.00;0.00;0.62;3.90;1.90;;;20.80;27.20;;;;;;2268926;61;20389;-53
2023/12/11 09:14:06;0.00;0.00;0.62;0.00;0.00;0.62;4.03;2.40;;;20.80;27.20;;;;;;2269173;61;20581;-56
2023/12/11 09:16:51;0.00;0.00;0.62;0.00;0.00;0.62;2.37;1.53;;;20.80;27.20;;;;;;2268921;61;20691;-54
2023/12/11 09:19:37;0.00;0.00;0.62;0.00;0.00;0.62;2.70;1.70;;;20.80;27.20;;;;;;2269215;61;20375;-58
2023/12/11 09:22:23;0.00;0.00;0.62;0.00;0.00;0.62;3.50;2.33;;;20.70;27.10;;;;;;2268113;61;20375;-57
2023/12/11 09:25:08;0.00;0.00;0.62;0.00;0.00;0.62;3.13;2.20;;;20.80;27.20;;;;;;2269317;61;20416;-56
2023/12/11 09:27:53;0.00;0.00;0.62;0.00;0.00;0.62;3.03;2.00;;;20.80;27.20;;;;;;2269025;61;20424;-54
2023/12/11 09:30:38;0.00;0.00;0.62;0.00;0.00;0.62;4.03;2.90;;;20.70;27.10;;;;;;2268899;61;20366;-56
2023/12/11 09:33:23;0.00;0.00;0.62;0.00;0.00;0.62;3.70;2.37;;;20.70;27.10;;;;;;2268844;61;20382;-51
2023/12/11 09:36:09;0.00;0.00;0.62;0.00;0.00;0.62;4.57;2.93;;;20.80;27.20;;;;;;2269243;61;20417;-57
2023/12/11 09:38:55;0.00;0.00;0.62;0.00;0.00;0.62;3.40;2.53;;;20.80;27.20;;;;;;2268845;61;20389;-52
2023/12/11 09:41:43;0.00;0.00;0.62;0.00;0.00;0.62;4.67;2.90;;;20.80;27.20;;;;;;2268809;61;20351;-54
2023/12/11 09:44:30;0.00;0.00;0.62;0.00;0.00;0.62;4.43;3.40;;;20.80;27.20;;;;;;2269179;61;20506;-60
2023/12/11 09:47:21;0.00;0.00;0.62;0.00;0.00;0.62;5.60;3.63;;;20.80;27.20;;;;;;2269199;61;20371;-59
2023/12/11 09:50:08;0.00;0.00;0.62;0.00;0.00;0.62;4.47;3.13;;;20.80;27.20;;;;;;2268961;61;20359;-58
2023/12/11 09:52:55;0.00;0.00;0.62;0.00;0.00;0.62;5.50;3.90;;;20.80;27.20;;;;;;2268360;61;20390;-58
2023/12/11 09:55:40;0.00;0.00;0.62;0.00;0.00;0.62;6.73;4.50;;;20.80;27.20;;;;;;2269279;61;20549;-56
2023/12/11 09:58:25;0.00;0.00;0.62;0.00;0.00;0.62;5.20;4.00;;;20.80;27.20;;;;;;2268953;61;20403;-58
2023/12/11 10:01:13;0.00;0.00;0.62;0.00;0.00;0.62;5.47;3.70;;;20.80;27.20;;;;;;2268781;61;20363;-55
2023/12/11 10:03:57;0.00;0.00;0.62;0.00;0.00;0.62;6.23;3.57;;;20.80;27.20;;;;;;2266123;61;20457;-59
2023/12/11 10:06:44;0.00;0.00;0.62;0.00;0.00;0.62;5.07;3.60;;;20.80;27.20;;;;;;2265775;61;20367;-53
2023/12/11 10:09:34;0.00;0.00;0.62;0.00;0.00;0.62;5.37;3.30;;;20.80;27.20;;;;;;2268866;61;20798;-54
2023/12/11 10:12:19;0.00;0.00;0.62;0.00;0.00;0.62;5.57;3.40;;;20.80;27.20;;;;;;2268779;61;20376;-52
2023/12/11 10:15:06;0.00;0.00;0.62;0.00;0.00;0.62;4.30;3.20;;;20.80;27.20;;;;;;2268842;61;20371;-57
2023/12/11 10:18:02;0.00;0.00;0.62;0.00;0.00;0.62;4.70;2.93;;;20.80;27.20;;;;;;2268905;61;20359;-55
2023/12/11 10:20:56;0.00;0.00;0.62;0.00;0.00;0.62;4.50;3.30;;;20.80;27.20;;;;;;2265578;61;20386;-55
2023/12/11 10:23:41;0.00;0.00;0.62;0.00;0.00;0.62;3.50;2.83;;;20.80;27.20;;;;;;2268381;61;20383;-56
2023/12/11 10:26:27;0.00;0.00;0.62;0.00;0.00;0.62;6.50;3.30;;;20.80;27.20;;;;;;2269048;61;20403;-49
2023/12/11 10:29:21;0.00;0.00;0.62;0.00;0.00;0.62;4.87;3.30;;;20.80;27.20;;;;;;2268394;61;20890;-52
2023/12/11 10:32:06;0.00;0.00;0.62;0.00;0.00;0.62;5.07;3.50;;;20.80;27.20;;;;;;2268729;61;20448;-54
2023/12/11 10:34:51;0.00;0.00;0.62;0.00;0.00;0.62;5.70;3.10;;;20.80;27.20;;;;;;2268802;61;20533;-55
2023/12/11 10:37:36;0.00;0.00;0.62;0.00;0.00;0.62;5.93;3.40;;;20.80;27.20;;;;;;2268618;61;20430;-53
2023/12/11 10:40:21;0.00;0.00;0.62;0.00;0.00;0.62;5.43;3.80;;;20.80;27.20;;;;;;2679837;45;20403;-56
2023/12/11 10:43:08;0.00;0.00;0.62;0.00;0.00;0.62;5.10;3.63;;;20.80;27.20;;;;;;2260374;61;20388;-53
2023/12/11 10:45:53;0.00;0.00;0.62;0.00;0.00;0.62;4.10;3.03;;;20.80;27.20;;;;;;2260563;61;20365;-57
2023/12/11 10:48:38;0.00;0.00;0.62;0.00;0.00;0.62;3.57;2.60;;;20.80;27.20;;;;;;2260743;61;20428;-54
2023/12/11 10:51:23;0.00;0.00;0.62;0.00;0.00;0.62;5.63;3.37;;;20.90;27.20;;;;;;2260373;61;20368;-57